createdAt,value
2023-02-03T00:03:29.921Z,3.65
2023-02-03T00:08:31.657Z,2.75
2023-02-03T00:13:33.885Z,2.92
2023-02-03T00:18:35.314Z,2.90
2023-02-03T00:23:36.711Z,2.80
2023-02-03T00:28:38.173Z,2.50
2023-02-03T00:33:39.677Z,2.83
2023-02-03T00:38:41.134Z,2.92
2023-02-03T00:43:42.721Z,3.33
2023-02-03T00:48:44.160Z,2.50
2023-02-03T00:53:45.549Z,2.72
2023-02-03T00:58:47.122Z,2.78
2023-02-03T01:03:48.593Z,2.63
2023-02-03T01:08:50.484Z,2.58
2023-02-03T01:13:51.963Z,3.13
2023-02-03T01:18:53.441Z,2.10
2023-02-03T01:23:55.189Z,3.00
2023-02-03T01:28:57.793Z,2.30
2023-02-03T01:33:59.809Z,2.65
2023-02-03T01:39:01.863Z,2.70
2023-02-03T01:44:23.209Z,2.53
2023-02-03T01:49:24.535Z,2.25
2023-02-03T01:54:27.550Z,2.45
2023-02-03T01:59:29.888Z,3.03
2023-02-03T02:04:49.895Z,2.47
2023-02-03T02:09:51.461Z,2.67
2023-02-03T02:14:52.972Z,2.50
2023-02-03T02:20:09.577Z,2.38
2023-02-03T02:25:33.979Z,2.88
2023-02-03T02:30:54.072Z,2.35
2023-02-03T02:40:56.777Z,2.30
2023-02-03T02:46:09.050Z,2.28
2023-02-03T02:51:12.699Z,2.30
2023-02-03T02:56:15.739Z,2.65
2023-02-03T03:01:17.964Z,2.53
2023-02-03T03:06:25.075Z,2.03
2023-02-03T03:11:29.018Z,2.10
2023-02-03T03:16:33.377Z,2.78
2023-02-03T03:21:37.992Z,2.63
2023-02-03T03:26:39.361Z,2.42
2023-02-03T03:31:41.335Z,2.72
2023-02-03T03:36:42.765Z,2.10
2023-02-03T03:42:02.744Z,1.90
2023-02-03T03:47:10.902Z,2.58
2023-02-03T03:52:14.042Z,2.15
2023-02-03T03:57:21.245Z,3.13
2023-02-03T04:02:22.781Z,2.58
2023-02-03T04:07:24.262Z,2.30
2023-02-03T04:12:25.741Z,2.58
2023-02-03T04:17:27.210Z,2.13
2023-02-03T04:22:28.649Z,3.20
2023-02-03T04:27:30.045Z,2.60
2023-02-03T04:32:31.604Z,2.53
2023-02-03T04:37:33.399Z,2.22
2023-02-03T04:42:36.502Z,2.90
2023-02-03T04:47:38.326Z,2.35
2023-02-03T04:52:39.765Z,2.22
2023-02-03T04:57:41.223Z,2.20
2023-02-03T05:02:42.612Z,2.40
2023-02-03T05:07:44.012Z,2.65
2023-02-03T05:12:45.438Z,2.35
2023-02-03T05:17:46.881Z,1.98
2023-02-03T05:28:13.604Z,3.08
2023-02-03T05:33:15.080Z,2.55
2023-02-03T05:38:16.926Z,2.33
2023-02-03T05:43:18.348Z,2.67
2023-02-03T05:48:19.751Z,2.38
2023-02-03T05:53:21.149Z,2.50
2023-02-03T05:58:22.556Z,2.92
2023-02-03T06:03:24.191Z,2.35
2023-02-03T06:08:28.689Z,2.55
2023-02-03T06:13:30.167Z,2.60
2023-02-03T06:18:31.591Z,3.08
2023-02-03T06:23:33.204Z,2.67
2023-02-03T06:28:34.663Z,2.60
2023-02-03T06:33:36.103Z,3.08
2023-02-03T06:38:37.574Z,2.08
2023-02-03T06:43:38.977Z,2.50
2023-02-03T06:48:40.391Z,2.38
2023-02-03T06:53:41.768Z,2.72
2023-02-03T06:58:44.575Z,2.42
2023-02-03T07:03:47.003Z,2.15
2023-02-03T07:09:07.082Z,3.17
2023-02-03T07:14:08.485Z,2.20
2023-02-03T07:19:09.902Z,2.75
2023-02-03T07:24:11.357Z,2.72
2023-02-03T07:29:12.778Z,2.50
2023-02-03T07:34:14.207Z,2.15
2023-02-03T07:39:15.629Z,2.85
2023-02-03T07:44:17.009Z,3.17
2023-02-03T07:49:18.399Z,2.60
2023-02-03T07:54:19.882Z,3.25
2023-02-03T07:59:21.394Z,2.50
2023-02-03T08:04:24.399Z,2.95
2023-02-03T08:09:25.908Z,2.80
2023-02-03T08:14:27.405Z,2.55
2023-02-03T08:19:29.241Z,3.10
2023-02-03T08:24:30.679Z,2.38
2023-02-03T08:29:32.150Z,3.72
2023-02-03T08:34:34.210Z,2.83
2023-02-03T08:39:35.794Z,2.67
2023-02-03T08:44:39.055Z,3.15
2023-02-03T08:49:41.748Z,3.00
2023-02-03T08:54:43.497Z,2.70
2023-02-03T08:59:45.049Z,2.88
2023-02-03T09:04:47.491Z,2.75
2023-02-03T09:09:48.963Z,3.00
2023-02-03T09:14:50.931Z,3.40
2023-02-03T09:19:52.385Z,2.90
2023-02-03T09:24:53.924Z,2.97
2023-02-03T09:29:55.450Z,3.35
2023-02-03T09:34:56.852Z,4.03
2023-02-03T09:39:59.094Z,2.78
2023-02-03T09:45:14.833Z,2.78
2023-02-03T09:50:20.873Z,3.47
2023-02-03T09:55:42.837Z,3.38
2023-02-03T10:00:51.291Z,3.20
2023-02-03T10:06:01.723Z,2.33
2023-02-03T10:11:18.589Z,3.58
2023-02-03T10:16:38.103Z,2.80
2023-02-03T10:21:42.685Z,2.97
2023-02-03T10:26:44.132Z,2.75
2023-02-03T10:31:47.642Z,3.90
2023-02-03T10:36:56.233Z,3.55
2023-02-03T10:41:57.842Z,2.95
2023-02-03T10:46:59.269Z,3.53
2023-02-03T10:52:03.413Z,3.90
2023-02-03T10:57:05.978Z,2.67
2023-02-03T11:02:11.211Z,2.60
2023-02-03T11:07:24.195Z,3.83
2023-02-03T11:12:26.435Z,2.67
2023-02-03T11:17:30.080Z,2.75
2023-02-03T11:22:35.658Z,2.60
2023-02-03T11:27:37.409Z,2.92
2023-02-03T11:32:43.761Z,3.38
2023-02-03T11:37:49.866Z,3.00
2023-02-03T11:42:51.265Z,3.55
2023-02-03T11:47:55.679Z,3.47
2023-02-03T11:53:12.149Z,4.13
2023-02-03T11:58:32.031Z,3.00
2023-02-03T12:03:44.353Z,3.78
2023-02-03T12:08:48.558Z,3.20
2023-02-03T12:13:53.043Z,4.10
2023-02-03T12:19:13.139Z,4.20
2023-02-03T12:24:28.428Z,3.63
2023-02-03T12:29:32.632Z,3.53
2023-02-03T12:34:38.286Z,4.50
2023-02-03T12:39:48.266Z,3.67
2023-02-03T12:44:57.287Z,4.47
2023-02-03T12:50:05.448Z,4.30
2023-02-03T12:55:25.927Z,3.72
2023-02-03T13:00:44.397Z,4.03
2023-02-03T13:06:09.357Z,4.35
2023-02-03T13:11:10.802Z,4.07
2023-02-03T13:16:14.285Z,5.40
2023-02-03T13:21:16.080Z,4.40
2023-02-03T13:26:42.758Z,3.80
2023-02-03T13:31:50.227Z,5.47
2023-02-03T13:37:06.429Z,4.38
2023-02-03T13:42:12.938Z,4.53
2023-02-03T13:47:16.634Z,5.30
2023-02-03T13:52:25.720Z,4.93
2023-02-03T13:57:34.469Z,4.50
2023-02-03T14:02:52.073Z,4.22
2023-02-03T14:07:53.494Z,4.70
2023-02-03T14:12:56.965Z,4.72
2023-02-03T14:18:02.462Z,4.93
2023-02-03T14:23:06.648Z,4.93
2023-02-03T14:28:10.487Z,4.78
2023-02-03T14:33:11.984Z,4.97
2023-02-03T14:38:14.407Z,4.22
2023-02-03T14:43:34.820Z,3.72
2023-02-03T14:48:55.431Z,4.85
2023-02-03T14:54:08.753Z,5.47
2023-02-03T14:59:10.575Z,5.78
2023-02-03T15:04:12.002Z,4.40
2023-02-03T15:09:34.872Z,3.78
2023-02-03T15:14:36.412Z,4.18
2023-02-03T15:19:42.066Z,5.03
2023-02-03T15:24:43.714Z,4.70
2023-02-03T15:29:45.337Z,4.85
2023-02-03T15:34:50.291Z,5.47
2023-02-03T15:40:00.358Z,5.18
2023-02-03T15:45:04.874Z,5.63
2023-02-03T15:50:08.530Z,5.47
2023-02-03T15:55:23.027Z,5.40
2023-02-03T16:00:38.252Z,5.18
2023-02-03T16:05:39.785Z,4.88
2023-02-03T16:10:42.059Z,5.53
2023-02-03T16:15:43.500Z,6.75
2023-02-03T16:20:49.801Z,7.80
2023-02-03T16:26:23.503Z,6.82
2023-02-03T16:31:43.400Z,5.63
2023-02-03T16:37:03.337Z,5.20
2023-02-03T16:42:31.932Z,5.70
2023-02-03T16:47:52.012Z,5.80
2023-02-03T16:52:53.452Z,5.30
2023-02-03T16:57:54.951Z,5.07
2023-02-03T17:02:58.579Z,5.65
2023-02-03T17:08:00.346Z,4.85
2023-02-03T17:13:01.813Z,5.38
2023-02-03T17:18:03.259Z,4.88
2023-02-03T17:23:04.812Z,5.57
2023-02-03T17:28:07.697Z,5.15
2023-02-03T17:33:12.924Z,5.30
2023-02-03T17:38:15.043Z,5.80
2023-02-03T17:53:56.629Z,5.27
2023-02-03T17:58:59.422Z,6.03
2023-02-03T18:04:02.688Z,5.35
2023-02-03T18:09:05.220Z,6.20
2023-02-03T18:14:06.674Z,4.85
2023-02-03T18:19:08.941Z,4.10
2023-02-03T18:24:11.699Z,6.15
2023-02-03T18:29:13.412Z,5.40
2023-02-03T18:34:15.253Z,6.90
2023-02-03T18:39:17.965Z,5.60
2023-02-03T18:44:19.552Z,4.68
2023-02-03T18:49:21.081Z,5.07
2023-02-03T18:54:22.519Z,5.25
2023-02-03T18:59:23.959Z,5.13
2023-02-03T19:04:25.377Z,4.40
2023-02-03T19:09:26.780Z,6.18
2023-02-03T19:14:28.509Z,4.47
2023-02-03T19:19:29.932Z,5.80
2023-02-03T19:24:31.355Z,4.30
2023-02-03T19:29:32.744Z,4.70
2023-02-03T19:34:34.191Z,4.85
2023-02-03T19:39:35.801Z,5.30
2023-02-03T19:44:37.241Z,4.93
2023-02-03T19:49:38.806Z,4.80
2023-02-03T19:54:40.259Z,5.38
2023-02-03T19:59:41.957Z,5.68
2023-02-03T20:04:44.265Z,5.15
2023-02-03T20:09:46.194Z,5.85
2023-02-03T20:14:47.620Z,4.90
2023-02-03T20:19:49.104Z,5.28
2023-02-03T20:24:50.525Z,5.38
2023-02-03T20:29:51.918Z,5.03
2023-02-03T20:34:53.320Z,6.82
2023-02-03T20:39:54.950Z,5.22
2023-02-03T20:44:56.460Z,4.28
2023-02-03T20:49:57.858Z,5.15
2023-02-03T20:54:59.267Z,5.50
2023-02-03T21:00:00.698Z,5.35
2023-02-03T21:05:24.929Z,4.97
2023-02-03T21:10:26.358Z,4.82
2023-02-03T21:15:29.101Z,5.10
2023-02-03T21:20:31.870Z,4.97
2023-02-03T21:25:33.684Z,4.97
2023-02-03T21:30:35.336Z,5.20
2023-02-03T21:35:37.516Z,4.05
2023-02-03T21:40:38.955Z,6.00
2023-02-03T21:45:44.058Z,5.30
2023-02-03T21:50:45.717Z,4.05
2023-02-03T21:55:47.133Z,4.32
2023-02-03T22:00:49.244Z,4.15
2023-02-03T22:05:51.021Z,5.72
2023-02-03T22:10:52.451Z,4.32
2023-02-03T22:15:53.993Z,3.30
2023-02-03T22:20:55.452Z,3.25
2023-02-03T22:25:56.966Z,4.35
2023-02-03T22:30:58.426Z,3.40
2023-02-03T22:35:59.921Z,3.78
2023-02-03T22:41:01.798Z,3.92
2023-02-03T22:46:04.816Z,4.47
2023-02-03T22:51:06.402Z,4.03
2023-02-03T22:56:08.049Z,3.35
2023-02-03T23:01:09.441Z,5.28
2023-02-03T23:06:11.550Z,4.03
2023-02-03T23:11:12.988Z,4.30
2023-02-03T23:16:14.952Z,4.05
2023-02-03T23:21:16.442Z,3.80
2023-02-03T23:26:18.114Z,4.18
2023-02-03T23:31:19.623Z,4.38
2023-02-03T23:36:21.030Z,4.70
2023-02-03T23:41:22.458Z,5.15
2023-02-03T23:46:23.913Z,3.67
2023-02-03T23:51:25.369Z,4.95
2023-02-03T23:56:26.808Z,4.22
